Time;durP1;ratioP1;P1;durP2;ratioP2;P2;SDS_P1;SDS_P2;PMS_P1;PMS_P2;Temp;Humidity;BMP_temperature;BMP_pressure;BME280_temperature;BME280_humidity;BME280_pressure;Samples;Min_cycle;Max_cycle;Signal;HPM_P1;HPM_P2
2023/03/26 00:00:49;;;;;;;6.25;2.45;;;5.40;79.50;;;;;;6250033;23;20043;-87
2023/03/26 00:03:37;;;;;;;8.82;2.35;;;5.40;92.00;;;;;;6254412;23;20031;-85
2023/03/26 00:06:32;;;;;;;8.27;2.05;;;5.30;99.90;;;;;;6233145;23;20060;-87
2023/03/26 00:09:20;;;;;;;14.43;2.80;;;5.30;99.90;;;;;;6266344;23;20020;-90
2023/03/26 00:12:13;;;;;;;8.93;3.03;;;5.30;1.00;;;;;;6259814;23;20058;-89
2023/03/26 00:15:03;;;;;;;7.18;2.80;;;5.40;1.00;;;;;;6239890;23;20028;-87
2023/03/26 00:17:52;;;;;;;8.73;2.78;;;5.50;69.00;;;;;;6239333;23;20024;-89
2023/03/26 00:20:40;;;;;;;10.70;2.47;;;5.60;99.90;;;;;;6239048;23;20024;-90
2023/03/26 00:23:29;;;;;;;7.35;2.47;;;5.70;99.90;;;;;;6230386;23;20031;-89
2023/03/26 00:26:17;;;;;;;7.15;2.50;;;5.70;99.90;;;;;;6228556;23;20031;-89
2023/03/26 00:29:10;;;;;;;13.30;2.55;;;5.70;27.30;;;;;;6259396;23;20454;-89
2023/03/26 00:31:58;;;;;;;7.13;2.50;;;5.80;1.00;;;;;;6247463;23;20027;-89
2023/03/26 00:34:50;;;;;;;10.23;2.40;;;5.90;99.90;;;;;;6246687;23;20031;-89
2023/03/26 00:37:41;;;;;;;6.95;2.50;;;5.90;1.00;;;;;;6247419;23;20027;-88
2023/03/26 00:40:28;;;;;;;5.07;1.95;;;5.90;99.90;;;;;;6249978;23;20426;-91
2023/03/26 00:43:20;;;;;;;11.23;2.60;;;5.90;99.90;;;;;;6229302;23;20090;-88
2023/03/26 00:46:07;;;;;;;9.60;2.20;;;5.90;99.90;;;;;;6232525;23;20024;-87
2023/03/26 00:48:58;;;;;;;8.63;1.90;;;5.90;9.20;;;;;;6255659;23;20388;-90
2023/03/26 00:51:46;;;;;;;5.25;1.88;;;5.90;1.00;;;;;;6231936;23;20027;-90
2023/03/26 00:54:34;;;;;;;8.43;2.22;;;5.80;1.00;;;;;;6247580;23;20132;-88
2023/03/26 00:57:29;;;;;;;7.00;2.13;;;5.80;99.90;;;;;;6225960;23;20031;-85
2023/03/26 01:00:33;;;;;;;13.07;2.40;;;5.80;1.00;;;;;;6246127;23;20336;-88
2023/03/26 01:03:28;;;;;;;8.98;2.25;;;5.80;99.90;;;;;;6226148;23;20024;-90
2023/03/26 01:06:31;;;;;;;8.38;1.75;;;5.80;99.90;;;;;;6248312;23;20020;-89
2023/03/26 01:09:25;;;;;;;7.50;2.08;;;5.80;99.90;;;;;;6248352;23;20161;-89
2023/03/26 01:12:17;;;;;;;11.15;2.53;;;5.80;99.90;;;;;;6226024;23;20039;-88
2023/03/26 01:15:07;;;;;;;7.25;2.17;;;5.80;99.90;;;;;;6258826;23;20023;-88
2023/03/26 01:17:56;;;;;;;11.75;2.90;;;5.80;1.00;;;;;;6226149;23;20028;-88
2023/03/26 01:20:48;;;;;;;8.73;2.00;;;5.70;99.90;;;;;;6248389;23;20109;-89
2023/03/26 01:23:45;;;;;;;11.13;2.87;;;5.70;99.90;;;;;;6225354;23;20038;-88
2023/03/26 01:26:32;;;;;;;5.70;2.20;;;5.70;99.90;;;;;;6247019;23;20024;-89
2023/03/26 01:29:52;;;;;;;11.90;2.75;;;5.80;99.90;;;;;;6246844;23;20024;-88
2023/03/26 01:32:54;;;;;;;11.27;2.35;;;5.80;99.90;;;;;;6228403;23;20200;-88
2023/03/26 01:36:07;;;;;;;5.03;2.30;;;5.80;10.30;;;;;;6226565;23;20051;-89
2023/03/26 01:39:08;;;;;;;12.13;2.53;;;5.80;1.00;;;;;;6225565;23;20035;-88
2023/03/26 01:42:10;;;;;;;7.25;2.10;;;5.80;99.90;;;;;;6244879;23;20128;-87
2023/03/26 01:45:10;;;;;;;9.48;2.00;;;5.90;99.90;;;;;;6247131;23;20047;-89
2023/03/26 01:48:01;;;;;;;7.97;2.03;;;5.80;79.50;;;;;;6230452;23;20419;-87
2023/03/26 01:50:52;;;;;;;12.32;2.08;;;5.80;16.90;;;;;;6224861;23;20020;-89
2023/03/26 01:53:47;;;;;;;11.13;2.45;;;5.70;9.70;;;;;;6230519;23;20082;-88
2023/03/26 01:57:05;;;;;;;8.68;2.10;;;5.70;57.00;;;;;;6238044;23;20048;-88
2023/03/26 02:00:17;;;;;;;11.82;2.55;;;5.80;1.00;;;;;;6259375;23;20039;-88
2023/03/26 02:03:26;;;;;;;8.52;2.83;;;5.80;99.90;;;;;;6250246;22;20028;-86
2023/03/26 02:06:29;;;;;;;9.05;2.65;;;5.80;99.90;;;;;;6269797;22;20068;-87
2023/03/26 02:09:23;;;;;;;10.75;2.20;;;5.80;99.90;;;;;;6269648;22;20020;-88
2023/03/26 02:12:13;;;;;;;11.00;2.28;;;5.80;99.90;;;;;;6238578;23;20032;-89
2023/03/26 02:15:01;;;;;;;5.60;2.17;;;5.80;99.90;;;;;;6260407;23;20024;-90
2023/03/26 02:17:48;;;;;;;14.25;2.53;;;5.80;99.90;;;;;;6261334;23;20024;-88
2023/03/26 02:20:42;;;;;;;13.73;2.38;;;5.80;99.90;;;;;;6231855;23;20038;-88
2023/03/26 02:23:34;;;;;;;6.88;2.50;;;5.80;99.90;;;;;;6227126;23;20050;-87
2023/03/26 02:26:24;;;;;;;10.23;2.72;;;5.80;99.90;;;;;;6249269;23;20027;-85
2023/03/26 02:29:13;;;;;;;11.25;2.13;;;5.80;99.90;;;;;;6246172;23;20047;-88
2023/03/26 02:32:01;;;;;;;10.25;2.42;;;5.80;99.90;;;;;;6244136;23;20047;-88
2023/03/26 02:34:50;;;;;;;8.70;2.28;;;5.80;99.90;;;;;;6245921;23;20028;-89
2023/03/26 02:37:41;;;;;;;11.55;1.98;;;5.80;99.90;;;;;;6227724;23;20079;-90
2023/03/26 02:40:42;;;;;;;12.25;2.47;;;5.80;99.90;;;;;;6246990;23;20423;-88
2023/03/26 02:43:30;;;;;;;4.65;2.10;;;5.70;99.90;;;;;;6232598;23;20035;-87
2023/03/26 02:46:18;;;;;;;9.07;2.00;;;5.80;99.90;;;;;;6251503;23;20115;-87
2023/03/26 02:49:05;;;;;;;8.50;2.00;;;5.70;99.90;;;;;;6256419;23;20034;-88
2023/03/26 02:51:55;;;;;;;10.25;2.38;;;5.70;1.00;;;;;;6260991;23;20024;-88
2023/03/26 02:54:44;;;;;;;8.80;2.67;;;5.70;1.00;;;;;;6250721;23;20096;-88
2023/03/26 02:57:31;;;;;;;8.38;2.53;;;5.80;1.00;;;;;;6226286;23;20031;-88
2023/03/26 03:00:22;;;;;;;9.80;2.38;;;5.70;1.00;;;;;;6251204;23;20021;-89
2023/03/26 03:03:09;;;;;;;10.45;2.58;;;5.70;1.00;;;;;;6253697;22;20032;-87
2023/03/26 03:05:57;;;;;;;8.85;2.63;;;5.60;33.80;;;;;;6249542;23;20023;-87
2023/03/26 03:08:47;;;;;;;8.82;2.80;;;5.50;99.90;;;;;;6250180;23;20577;-87
2023/03/26 03:11:37;;;;;;;11.02;2.13;;;5.40;99.90;;;;;;6232223;23;20024;-88
2023/03/26 03:14:24;;;;;;;11.68;2.78;;;5.40;99.90;;;;;;6250640;23;20024;-86
2023/03/26 03:17:12;;;;;;;9.70;1.95;;;5.30;1.00;;;;;;6255780;22;20028;-86
2023/03/26 03:19:59;;;;;;;13.68;2.65;;;5.20;1.00;;;;;;6230376;23;20028;-86
2023/03/26 03:22:47;;;;;;;8.07;2.70;;;5.20;99.90;;;;;;6232425;23;20032;-87
2023/03/26 03:25:34;;;;;;;7.40;2.20;;;5.10;1.00;;;;;;6250954;23;20020;-86
2023/03/26 03:28:22;;;;;;;13.93;2.60;;;5.10;99.90;;;;;;6249716;23;20032;-86
2023/03/26 03:31:10;;;;;;;10.00;2.42;;;5.10;1.00;;;;;;6253727;23;20025;-86
2023/03/26 03:33:57;;;;;;;9.63;2.30;;;5.10;1.00;;;;;;6253382;23;20020;-85
2023/03/26 03:36:47;;;;;;;8.98;2.22;;;5.10;99.90;;;;;;6246857;23;20055;-87
2023/03/26 03:39:34;;;;;;;11.25;2.42;;;5.10;99.90;;;;;;6239588;23;20115;-86
2023/03/26 03:42:21;;;;;;;6.75;2.20;;;5.10;99.90;;;;;;6244683;23;20099;-86
2023/03/26 03:45:09;;;;;;;8.25;2.58;;;5.10;99.90;;;;;;6249153;23;20027;-87
2023/03/26 03:48:00;;;;;;;12.98;2.90;;;5.10;1.00;;;;;;6249727;23;20040;-86
2023/03/26 03:50:47;;;;;;;10.25;2.70;;;5.10;1.00;;;;;;6246398;23;20028;-86
2023/03/26 03:53:35;;;;;;;9.00;2.50;;;5.00;1.00;;;;;;6225948;23;20127;-87
2023/03/26 03:56:28;;;;;;;9.00;2.65;;;5.00;1.00;;;;;;6247680;23;20051;-87
2023/03/26 03:59:19;;;;;;;7.68;2.25;;;5.00;1.00;;;;;;6229121;23;20024;-86
2023/03/26 04:02:06;;;;;;;4.95;2.30;;;5.00;1.00;;;;;;6250134;23;20051;-85
2023/03/26 04:04:56;;;;;;;11.98;2.60;;;5.00;27.40;;;;;;6247790;23;20074;-86
2023/03/26 04:07:44;;;;;;;10.27;2.63;;;5.00;62.80;;;;;;6248705;23;20020;-87
2023/03/26 04:10:31;;;;;;;17.35;2.67;;;5.10;92.50;;;;;;6227199;23;20024;-87
2023/03/26 04:13:19;;;;;;;11.77;2.67;;;5.10;56.20;;;;;;6247626;23;20483;-88
2023/03/26 04:16:06;;;;;;;14.48;2.60;;;5.20;3.50;;;;;;6247919;23;20117;-85
2023/03/26 04:18:53;;;;;;;11.55;2.60;;;5.20;1.00;;;;;;6225601;23;20081;-87
2023/03/26 04:21:41;;;;;;;9.50;2.60;;;5.30;99.90;;;;;;6247491;23;20055;-86
2023/03/26 04:24:39;;;;;;;11.63;2.95;;;5.30;99.90;;;;;;6247252;23;20024;-87
2023/03/26 04:27:31;;;;;;;6.75;2.45;;;5.30;99.90;;;;;;6260715;23;20024;-87
2023/03/26 04:30:22;;;;;;;12.85;2.75;;;5.20;99.90;;;;;;6247240;23;20070;-88
2023/03/26 04:33:14;;;;;;;8.65;2.35;;;5.20;99.90;;;;;;6249567;23;20024;-86
2023/03/26 04:36:01;;;;;;;6.43;2.40;;;5.30;1.00;;;;;;6247911;23;20339;-86
2023/03/26 04:38:50;;;;;;;9.32;2.10;;;5.20;1.00;;;;;;6228219;23;20035;-87
2023/03/26 04:41:38;;;;;;;9.30;2.80;;;5.20;1.00;;;;;;6248349;23;20024;-86
2023/03/26 04:44:29;;;;;;;8.73;2.75;;;5.20;60.40;;;;;;6245563;23;20035;-86
2023/03/26 04:47:24;;;;;;;9.85;2.53;;;5.20;99.90;;;;;;6227984;23;20408;-85
2023/03/26 04:50:11;;;;;;;14.55;2.60;;;5.20;99.90;;;;;;6246407;23;20047;-88
2023/03/26 04:53:01;;;;;;;15.15;2.63;;;5.20;99.90;;;;;;6229851;23;20327;-88
2023/03/26 04:56:03;;;;;;;10.15;2.88;;;5.20;27.90;;;;;;6259033;23;20102;-86
2023/03/26 04:58:50;;;;;;;9.23;3.00;;;5.20;38.50;;;;;;6253622;23;20035;-86
2023/03/26 05:01:40;;;;;;;13.60;3.30;;;5.20;61.10;;;;;;6247626;23;20423;-87
2023/03/26 05:04:32;;;;;;;11.25;3.13;;;5.20;1.00;;;;;;6224839;23;20051;-88
2023/03/26 05:07:23;;;;;;;11.93;3.13;;;5.20;99.90;;;;;;6227840;23;20082;-87
2023/03/26 05:10:19;;;;;;;8.90;2.58;;;5.30;1.00;;;;;;6246319;23;20028;-86
2023/03/26 05:13:06;;;;;;;14.98;2.85;;;5.40;99.90;;;;;;6248082;23;20115;-87
2023/03/26 05:15:54;;;;;;;6.13;2.28;;;5.50;99.90;;;;;;6259725;23;20090;-89
2023/03/26 05:18:42;;;;;;;9.75;2.95;;;5.60;99.90;;;;;;6247262;23;20024;-91
2023/03/26 05:21:30;;;;;;;9.52;2.50;;;5.50;1.00;;;;;;6227157;23;20031;-86
2023/03/26 05:24:18;;;;;;;11.20;2.92;;;5.60;99.90;;;;;;6247006;23;20067;-87
2023/03/26 05:27:05;;;;;;;14.45;2.95;;;5.60;99.90;;;;;;6224317;23;20024;-87
2023/03/26 05:29:59;;;;;;;13.10;2.92;;;5.70;99.90;;;;;;6245782;23;20099;-87
2023/03/26 05:32:51;;;;;;;11.35;2.50;;;5.70;83.80;;;;;;6227185;23;20034;-87
2023/03/26 05:35:39;;;;;;;9.15;2.50;;;5.70;33.10;;;;;;6248147;23;20107;-88
2023/03/26 05:38:29;;;;;;;9.82;2.83;;;5.60;99.90;;;;;;6245500;23;20039;-87
2023/03/26 05:41:16;;;;;;;14.00;2.72;;;5.60;99.90;;;;;;6247635;23;20526;-86
2023/03/26 05:44:06;;;;;;;9.75;2.80;;;5.60;99.90;;;;;;6245754;23;20117;-87
2023/03/26 05:46:54;;;;;;;8.18;2.90;;;5.50;99.90;;;;;;6246196;23;20031;-88
2023/03/26 05:49:41;;;;;;;10.82;2.67;;;5.50;99.90;;;;;;6248480;23;20113;-86
2023/03/26 05:52:31;;;;;;;12.65;2.75;;;5.50;99.90;;;;;;6245085;23;20032;-87
2023/03/26 05:55:27;;;;;;;11.27;2.70;;;5.60;99.90;;;;;;6223471;23;20028;-87
2023/03/26 05:58:25;;;;;;;8.15;2.70;;;5.50;99.90;;;;;;6247306;23;20020;-89
2023/03/26 06:01:19;;;;;;;11.95;3.30;;;5.60;99.90;;;;;;6227187;23;20099;-88
2023/03/26 06:04:27;;;;;;;8.93;2.83;;;5.60;1.00;;;;;;6240254;23;20024;-87
2023/03/26 06:07:16;;;;;;;;;;;5.60;99.90;;;;;;6227884;23;20032;-88
2023/03/26 06:10:18;;;;;;;12.38;2.45;;;5.60;97.30;;;;;;6229259;23;19920;-88
2023/03/26 06:13:20;;;;;;;11.93;2.85;;;5.70;1.00;;;;;;6226740;23;20040;-87
2023/03/26 06:16:11;;;;;;;9.18;2.60;;;5.70;99.90;;;;;;6226393;23;20028;-86
2023/03/26 06:19:25;;;;;;;11.88;2.83;;;5.80;99.90;;;;;;6227305;23;20035;-89
2023/03/26 06:22:12;;;;;;;9.80;2.95;;;5.90;99.90;;;;;;6245025;23;20095;-85
2023/03/26 06:25:03;;;;;;;14.02;2.90;;;5.90;99.90;;;;;;6244114;23;20427;-86
2023/03/26 06:28:10;;;;;;;12.60;4.28;;;5.90;9.20;;;;;;6247943;23;20068;-87
2023/03/26 06:31:06;;;;;;;9.82;3.30;;;5.90;83.30;;;;;;6247497;23;20028;-86
2023/03/26 06:33:53;;;;;;;7.18;2.70;;;5.90;1.00;;;;;;6224220;23;20020;-88
2023/03/26 06:36:40;;;;;;;11.30;3.28;;;6.00;99.90;;;;;;6244572;23;20107;-85
2023/03/26 06:39:27;;;;;;;11.20;3.25;;;5.90;99.90;;;;;;6246019;23;20331;-86
2023/03/26 06:42:17;;;;;;;11.98;3.25;;;6.00;99.90;;;;;;6245893;23;20144;-86
2023/03/26 06:45:05;;;;;;;17.40;2.70;;;6.00;99.90;;;;;;6222679;23;20024;-86
2023/03/26 06:47:53;;;;;;;9.27;2.42;;;6.00;99.90;;;;;;6244758;23;20075;-86
2023/03/26 06:50:40;;;;;;;12.35;3.35;;;6.10;91.70;;;;;;6250548;23;20055;-88
2023/03/26 06:53:28;;;;;;;9.15;2.50;;;6.10;26.40;;;;;;6230919;23;20398;-88
2023/03/26 06:56:15;;;;;;;9.43;2.60;;;6.10;1.00;;;;;;6225277;23;20400;-87
2023/03/26 06:59:02;;;;;;;8.82;2.25;;;6.10;1.00;;;;;;6246593;23;20106;-85
2023/03/26 07:01:51;;;;;;;13.95;3.25;;;6.10;1.00;;;;;;6244067;23;20605;-86
2023/03/26 07:04:38;;;;;;;13.52;2.88;;;6.10;1.00;;;;;;6247650;23;20378;-85
2023/03/26 07:07:25;;;;;;;8.00;2.17;;;6.00;1.00;;;;;;6225524;23;20327;-85
2023/03/26 07:10:16;;;;;;;9.13;2.50;;;6.00;1.00;;;;;;6250231;22;20093;-88
2023/03/26 07:13:03;;;;;;;10.13;2.53;;;6.00;26.00;;;;;;6225368;23;20103;-87
2023/03/26 07:15:53;;;;;;;9.70;2.63;;;5.90;90.20;;;;;;6248533;23;20024;-88
2023/03/26 07:18:40;;;;;;;12.20;2.60;;;5.90;99.90;;;;;;6247832;23;20035;-87
2023/03/26 07:21:32;;;;;;;14.20;2.30;;;5.80;1.00;;;;;;6250126;23;20050;-87
2023/03/26 07:24:20;;;;;;;10.15;2.50;;;5.80;99.90;;;;;;6249470;23;20059;-87
2023/03/26 07:27:43;;;;;;;11.88;2.97;;;5.70;1.00;;;;;;6226454;23;20066;-85
2023/03/26 07:30:59;;;;;;;13.07;3.13;;;5.70;99.90;;;;;;6249897;23;20501;-86
2023/03/26 07:34:08;;;;;;;11.27;2.97;;;5.70;1.00;;;;;;6219674;23;20316;-86
2023/03/26 07:37:25;;;;;;;10.05;3.55;;;5.70;99.90;;;;;;6247532;23;20052;-87
2023/03/26 07:40:50;;;;;;;10.55;2.90;;;5.70;99.90;;;;;;6254325;23;20028;-85
2023/03/26 07:43:58;;;;;;;11.60;3.13;;;5.70;1.00;;;;;;6249443;23;20436;-84
2023/03/26 07:46:52;;;;;;;16.27;3.70;;;5.70;1.00;;;;;;6227999;23;20035;-85
2023/03/26 07:49:39;;;;;;;17.10;3.80;;;5.70;99.90;;;;;;6247247;23;20047;-86
2023/03/26 07:52:27;;;;;;;8.93;2.80;;;5.70;1.00;;;;;;6248179;23;20031;-83
2023/03/26 07:55:15;;;;;;;14.02;3.90;;;5.70;99.90;;;;;;6225945;23;20297;-85
2023/03/26 07:58:10;;;;;;;14.60;3.47;;;5.70;99.90;;;;;;6228638;23;20063;-86
2023/03/26 08:01:15;;;;;;;10.48;2.72;;;5.70;1.00;;;;;;6249033;23;20320;-83
2023/03/26 08:04:23;;;;;;;11.15;2.90;;;5.70;1.00;;;;;;6248949;23;20713;-84
2023/03/26 08:07:30;;;;;;;15.73;3.50;;;5.70;21.30;;;;;;6246168;23;20020;-83
2023/03/26 08:10:34;;;;;;;8.15;3.03;;;5.70;99.90;;;;;;6250689;23;20090;-83
2023/03/26 08:13:25;;;;;;;13.77;4.32;;;5.70;99.90;;;;;;6248482;23;20020;-83
2023/03/26 08:16:15;;;;;;;20.00;3.67;;;5.90;99.90;;;;;;6242034;23;20105;-83
2023/03/26 08:19:24;;;;;;;17.20;4.20;;;6.00;99.90;;;;;;6248523;23;20039;-83
2023/03/26 08:22:25;;;;;;;19.83;4.20;;;6.00;99.90;;;;;;6246413;23;20031;-82
2023/03/26 08:25:33;;;;;;;15.45;3.78;;;6.00;99.90;;;;;;6246250;23;20038;-82
2023/03/26 08:29:02;;;;;;;8.95;3.55;;;6.00;99.90;;;;;;6235641;23;20062;-84
2023/03/26 08:31:50;;;;;;;20.83;5.57;;;6.10;99.90;;;;;;6246182;23;20020;-85
2023/03/26 08:34:40;;;;;;;13.95;4.32;;;6.00;99.90;;;;;;6246027;23;20432;-84
2023/03/26 08:37:28;;;;;;;14.77;4.22;;;6.00;99.90;;;;;;6246000;23;20028;-84
2023/03/26 08:40:39;;;;;;;10.48;3.75;;;6.10;99.90;;;;;;6246540;23;20037;-83
2023/03/26 08:43:32;;;;;;;12.30;3.85;;;6.20;99.90;;;;;;6247016;23;20036;-85
2023/03/26 08:46:51;;;;;;;11.23;3.65;;;6.40;99.90;;;;;;6242501;23;20486;-84
2023/03/26 08:49:52;;;;;;;11.15;3.80;;;6.50;99.90;;;;;;6245209;23;20032;-85
2023/03/26 08:53:18;;;;;;;10.27;3.17;;;6.60;99.90;;;;;;6226085;23;20020;-86
2023/03/26 08:56:33;;;;;;;7.57;2.85;;;6.70;99.90;;;;;;6207192;23;20124;-85
2023/03/26 08:59:43;;;;;;;9.73;3.05;;;7.00;99.90;;;;;;6250974;23;20731;-85
2023/03/26 09:03:00;;;;;;;8.13;2.63;;;7.20;99.90;;;;;;6244789;23;20031;-83
2023/03/26 09:06:15;;;;;;;11.65;3.15;;;7.30;99.90;;;;;;6222829;23;20020;-86
2023/03/26 09:09:24;;;;;;;7.00;3.38;;;7.50;99.90;;;;;;6224785;23;20024;-85
2023/03/26 09:12:14;;;;;;;9.90;3.03;;;7.90;99.90;;;;;;6246385;23;20086;-86
2023/03/26 09:15:47;;;;;;;8.50;2.78;;;8.80;99.90;;;;;;6245392;23;20395;-87
2023/03/26 09:19:02;;;;;;;5.80;2.65;;;8.80;99.90;;;;;;6218409;23;20122;-85
2023/03/26 09:22:11;;;;;;;4.30;2.00;;;8.40;1.00;;;;;;6248284;23;20024;-88
2023/03/26 09:25:22;;;;;;;5.25;2.13;;;8.10;1.00;;;;;;6244072;23;20024;-87
2023/03/26 09:28:13;;;;;;;9.35;2.58;;;8.90;99.90;;;;;;6225753;23;20055;-86
2023/03/26 09:35:10;;;;;;;6.78;1.75;;;10.60;99.90;;;;;;6243675;23;20086;-83
2023/03/26 09:38:24;;;;;;;4.35;1.40;;;11.20;98.40;;;;;;6225860;23;20118;-86
2023/03/26 09:41:15;;;;;;;2.33;1.60;;;10.60;99.90;;;;;;6245903;23;20107;-86
2023/03/26 09:44:34;;;;;;;2.45;1.10;;;11.00;99.90;;;;;;6243957;23;20110;-86
2023/03/26 09:47:27;;;;;;;3.90;1.33;;;11.40;1.00;;;;;;6246500;23;20038;-81
2023/03/26 09:50:47;;;;;;;3.28;1.25;;;11.30;1.00;;;;;;6245648;23;20035;-84
2023/03/26 09:57:52;;;;;;;5.05;1.40;;;12.60;99.90;;;;;;6244266;23;20640;-82
2023/03/26 10:00:47;;;;;;;2.58;1.35;;;11.60;99.90;;;;;;6244903;22;20043;-81
2023/03/26 10:03:58;;;;;;;4.78;1.50;;;10.90;99.90;;;;;;6243594;23;20376;-82
2023/03/26 10:07:21;;;;;;;6.72;1.42;;;10.60;99.90;;;;;;6245427;23;20030;-83
2023/03/26 10:11:08;;;;;;;3.75;1.30;;;10.20;99.90;;;;;;6220859;23;20027;-85
2023/03/26 10:14:20;;;;;;;1.85;1.38;;;10.70;99.90;;;;;;6247053;23;20030;-83
2023/03/26 10:17:18;;;;;;;4.35;1.50;;;11.40;99.90;;;;;;6226558;23;20039;-83
2023/03/26 10:20:27;;;;;;;3.55;1.02;;;12.20;99.90;;;;;;6222548;23;20035;-82
2023/03/26 10:23:27;;;;;;;2.35;1.10;;;13.30;19.00;;;;;;6245401;23;20038;-84
2023/03/26 10:26:44;;;;;;;2.47;0.90;;;13.30;1.00;;;;;;6244662;23;20250;-83
2023/03/26 10:30:33;;;;;;;3.05;1.00;;;12.40;99.90;;;;;;6243294;23;20024;-80
2023/03/26 10:33:48;;;;;;;1.00;0.80;;;11.70;99.90;;;;;;6244156;23;20035;-85
2023/03/26 10:36:42;;;;;;;2.33;1.00;;;11.50;99.90;;;;;;6243892;23;20027;-85
2023/03/26 10:40:04;;;;;;;2.05;1.27;;;11.60;99.90;;;;;;6246576;23;20107;-85
2023/03/26 10:43:23;;;;;;;2.88;0.75;;;12.90;99.90;;;;;;6244083;23;20111;-85
2023/03/26 10:46:24;;;;;;;3.00;1.00;;;14.30;99.90;;;;;;6257166;23;20036;-83
2023/03/26 10:49:13;;;;;;;2.85;1.10;;;14.20;99.90;;;;;;6256545;23;20023;-88
2023/03/26 10:52:14;;;;;;;1.63;0.70;;;12.90;99.90;;;;;;6259120;23;20024;-86
2023/03/26 10:55:44;;;;;;;2.38;1.08;;;13.00;99.90;;;;;;6265283;23;20024;-86
2023/03/26 10:58:35;;;;;;;1.55;0.82;;;13.70;99.90;;;;;;6270297;23;20023;-86
2023/03/26 11:02:04;;;;;;;2.40;1.10;;;13.60;99.90;;;;;;6246176;22;20034;-88
2023/03/26 11:08:58;;;;;;;1.77;1.00;;;13.20;99.90;;;;;;6252245;22;20098;-88
2023/03/26 11:11:54;;;;;;;1.58;0.80;;;13.00;99.90;;;;;;6248235;23;20032;-87
2023/03/26 11:14:44;;;;;;;1.90;0.90;;;12.30;99.90;;;;;;6247670;23;20607;-91
2023/03/26 11:17:57;;;;;;;4.18;1.10;;;11.80;99.90;;;;;;6247857;23;20020;-86
2023/03/26 11:21:12;;;;;;;2.42;0.90;;;11.80;99.90;;;;;;6246790;23;20028;-83
2023/03/26 11:24:28;;;;;;;2.42;0.88;;;12.10;99.90;;;;;;6253039;23;20028;-84
2023/03/26 11:27:41;;;;;;;1.77;0.73;;;12.80;99.90;;;;;;6257289;23;20024;-88
2023/03/26 11:30:52;;;;;;;1.85;0.85;;;13.50;99.90;;;;;;6257176;23;20028;-88
2023/03/26 11:33:56;;;;;;;2.05;0.82;;;13.60;99.90;;;;;;6256717;23;20025;-87
2023/03/26 11:36:55;;;;;;;1.42;0.90;;;14.00;99.90;;;;;;6261432;23;20020;-85
2023/03/26 11:39:55;;;;;;;3.38;0.82;;;14.40;99.90;;;;;;6266072;23;20034;-84
2023/03/26 11:42:46;;;;;;;1.80;0.90;;;14.20;99.90;;;;;;6254647;23;20024;-85
2023/03/26 11:45:52;;;;;;;3.83;1.33;;;14.20;99.90;;;;;;6234920;23;20024;-86
2023/03/26 11:48:56;;;;;;;2.97;0.80;;;14.90;99.90;;;;;;6250197;23;20016;-84
2023/03/26 11:51:48;;;;;;;1.58;0.80;;;15.40;99.90;;;;;;6228757;23;20020;-87
2023/03/26 11:54:47;;;;;;;1.40;0.70;;;15.90;99.90;;;;;;6247688;23;20039;-86
2023/03/26 11:57:44;;;;;;;2.80;0.90;;;15.90;99.90;;;;;;6245659;23;20028;-87
2023/03/26 12:00:32;;;;;;;1.45;0.70;;;15.30;95.10;;;;;;6246034;23;20028;-86
2023/03/26 12:03:32;;;;;;;1.70;0.90;;;15.80;94.30;;;;;;6245211;23;20032;-88
2023/03/26 12:06:50;;;;;;;3.50;0.85;;;15.50;78.60;;;;;;6245790;23;20086;-86
2023/03/26 12:10:08;;;;;;;1.67;0.90;;;15.30;65.50;;;;;;6246047;23;20032;-88
2023/03/26 12:13:35;;;;;;;3.45;0.95;;;15.50;56.80;;;;;;6246474;23;20024;-86
2023/03/26 12:16:26;;;;;;;1.58;1.00;;;16.20;48.70;;;;;;6212394;23;20166;-84
2023/03/26 12:19:21;;;;;;;2.30;0.98;;;14.60;38.40;;;;;;6246212;23;20035;-83
2023/03/26 12:22:36;;;;;;;1.52;0.73;;;15.10;45.30;;;;;;6247763;23;20031;-86
2023/03/26 12:25:30;;;;;;;1.55;0.80;;;15.70;43.40;;;;;;6251199;22;20024;-92
2023/03/26 12:28:22;;;;;;;3.30;1.05;;;14.70;38.70;;;;;;6224002;23;20443;-87
2023/03/26 12:31:16;;;;;;;3.10;1.00;;;14.90;40.30;;;;;;6246613;23;20028;-86
2023/03/26 12:34:19;;;;;;;2.70;0.90;;;15.50;43.60;;;;;;6246161;23;20123;-90
2023/03/26 12:37:29;;;;;;;4.38;1.15;;;15.70;34.20;;;;;;6246602;23;20414;-85
2023/03/26 12:40:35;;;;;;;2.10;0.90;;;15.80;34.40;;;;;;6247568;23;20031;-89
2023/03/26 12:43:44;;;;;;;2.10;0.90;;;16.10;27.70;;;;;;6224835;23;20104;-87
2023/03/26 12:47:07;;;;;;;4.10;1.00;;;15.00;20.50;;;;;;6244899;23;20043;-88
2023/03/26 12:50:15;;;;;;;1.92;0.88;;;13.80;18.90;;;;;;6229339;23;20024;-87
2023/03/26 12:53:14;;;;;;;4.80;1.00;;;13.90;17.10;;;;;;6245154;23;20359;-90
2023/03/26 12:56:11;;;;;;;1.73;0.80;;;15.50;23.10;;;;;;6226520;23;20035;-90
2023/03/26 12:59:28;;;;;;;2.60;0.93;;;15.10;15.10;;;;;;6247373;23;20024;-88
2023/03/26 13:03:02;;;;;;;3.42;0.88;;;15.40;18.80;;;;;;6246182;23;20028;-88
2023/03/26 13:06:11;;;;;;;2.30;0.90;;;16.90;13.90;;;;;;6245231;23;20028;-85
2023/03/26 13:09:42;;;;;;;4.40;1.00;;;18.30;14.40;;;;;;6246716;23;20028;-87
2023/03/26 13:12:56;;;;;;;7.72;1.33;;;18.90;10.80;;;;;;6244816;23;20028;-85
2023/03/26 13:16:07;;;;;;;1.88;0.90;;;18.90;4.20;;;;;;6246524;23;20035;-90
2023/03/26 13:19:09;;;;;;;1.50;0.68;;;18.50;1.00;;;;;;6247856;23;20122;-88
2023/03/26 13:22:06;;;;;;;3.72;1.15;;;17.60;1.00;;;;;;6240959;23;20024;-87
2023/03/26 13:25:06;;;;;;;1.25;0.70;;;15.60;1.00;;;;;;6223776;23;20095;-90
2023/03/26 13:28:16;;;;;;;3.28;0.98;;;14.90;1.00;;;;;;6248265;23;20034;-86
2023/03/26 13:31:22;;;;;;;1.70;1.05;;;14.40;1.00;;;;;;6245069;23;20020;-90
2023/03/26 13:34:19;;;;;;;1.77;0.93;;;15.10;1.00;;;;;;6247685;23;20348;-87
2023/03/26 13:37:34;;;;;;;5.25;1.17;;;14.50;1.00;;;;;;6250332;23;20027;-86
2023/03/26 13:40:47;;;;;;;2.67;0.73;;;13.70;1.00;;;;;;6248256;23;20576;-89
2023/03/26 13:43:43;;;;;;;4.97;1.10;;;13.90;1.00;;;;;;6248262;22;20100;-86
2023/03/26 13:46:56;;;;;;;4.40;2.05;;;13.70;1.00;;;;;;6248711;23;20059;-90
2023/03/26 13:49:50;;;;;;;5.00;1.05;;;13.10;1.00;;;;;;6245236;23;20133;-88
2023/03/26 13:53:20;;;;;;;3.88;1.25;;;12.50;1.00;;;;;;6245675;23;20028;-88
2023/03/26 13:56:12;;;;;;;3.08;1.67;;;12.10;1.00;;;;;;6247313;23;20377;-86
2023/03/26 13:59:10;;;;;;;4.30;1.15;;;11.90;7.40;;;;;;6225614;23;20020;-89
2023/03/26 14:02:10;;;;;;;3.22;1.27;;;11.60;13.50;;;;;;6246949;23;20028;-87
2023/03/26 14:05:14;;;;;;;5.53;1.33;;;11.30;17.40;;;;;;6246428;23;20035;-88
2023/03/26 14:08:26;;;;;;;5.45;1.30;;;10.90;49.50;;;;;;6246285;23;20024;-88
2023/03/26 14:11:19;;;;;;;3.87;1.60;;;10.30;92.80;;;;;;6224296;23;20023;-86
2023/03/26 14:14:19;;;;;;;4.63;1.77;;;9.90;99.90;;;;;;6244653;23;20575;-90
2023/03/26 14:17:22;;;;;;;8.88;3.78;;;9.20;99.90;;;;;;6245152;23;20059;-89
2023/03/26 14:20:43;;;;;;;5.63;1.50;;;8.90;99.90;;;;;;6247855;23;20031;-86
2023/03/26 14:24:05;;;;;;;9.85;1.60;;;8.60;99.90;;;;;;6244452;23;20038;-89
2023/03/26 14:27:01;;;;;;;6.47;1.50;;;8.50;1.00;;;;;;6248605;23;20032;-86
2023/03/26 14:30:16;;;;;;;2.22;1.10;;;8.40;1.00;;;;;;6227175;23;20035;-86
2023/03/26 14:33:12;;;;;;;3.08;1.23;;;8.40;1.00;;;;;;6225424;23;20042;-85
2023/03/26 14:36:12;;;;;;;2.10;1.30;;;8.30;1.00;;;;;;6247165;23;20419;-85
2023/03/26 14:39:22;;;;;;;4.53;1.50;;;8.30;1.00;;;;;;6244247;23;20023;-86
2023/03/26 14:42:17;;;;;;;3.95;1.40;;;8.50;1.00;;;;;;6245673;23;20085;-87
2023/03/26 14:45:24;;;;;;;3.45;1.38;;;8.60;1.00;;;;;;6246536;23;20032;-87
2023/03/26 14:48:32;;;;;;;3.55;1.35;;;8.70;1.00;;;;;;6248049;23;20016;-86
2023/03/26 14:51:35;;;;;;;3.67;1.40;;;8.70;1.00;;;;;;6248581;23;20024;-87
2023/03/26 14:54:30;;;;;;;4.32;1.20;;;8.80;1.00;;;;;;6247821;23;20032;-88
2023/03/26 14:57:20;;;;;;;3.42;1.67;;;8.80;1.00;;;;;;6246979;23;20035;-86
2023/03/26 15:00:22;;;;;;;3.25;1.40;;;8.80;1.00;;;;;;6249907;23;20024;-88
2023/03/26 15:03:28;;;;;;;5.33;1.30;;;8.80;1.00;;;;;;6246343;23;20044;-85
2023/03/26 15:06:55;;;;;;;7.45;2.58;;;8.70;1.00;;;;;;6246402;23;20089;-86
2023/03/26 15:10:01;;;;;;;6.38;1.75;;;8.60;1.00;;;;;;6246309;23;20114;-85
2023/03/26 15:13:26;;;;;;;6.93;1.88;;;8.40;1.00;;;;;;6245932;23;20027;-88
2023/03/26 15:16:39;;;;;;;2.80;1.50;;;8.10;33.10;;;;;;6245848;23;20024;-87
2023/03/26 15:19:45;;;;;;;;;;;7.70;99.90;;;;;;6246645;23;20123;-87
2023/03/26 15:23:03;;;;;;;11.38;2.47;;;7.60;99.90;;;;;;6248670;23;19919;-87
2023/03/26 15:26:03;;;;;;;6.80;2.45;;;7.40;99.90;;;;;;6245900;23;20035;-85
2023/03/26 15:29:22;;;;;;;8.07;2.10;;;7.20;99.90;;;;;;6247024;23;20050;-86
2023/03/26 15:32:30;;;;;;;5.10;1.98;;;7.00;99.90;;;;;;6252880;23;20028;-88
2023/03/26 15:35:32;;;;;;;3.67;1.90;;;6.90;1.00;;;;;;6256047;23;20028;-87
2023/03/26 15:38:58;;;;;;;4.65;1.65;;;6.70;99.90;;;;;;6258240;23;20043;-83
2023/03/26 15:41:56;;;;;;;17.25;8.65;;;6.50;51.10;;;;;;6264829;23;20019;-86
2023/03/26 15:45:02;;;;;;;12.32;6.28;;;6.20;80.40;;;;;;6257655;23;20025;-83
2023/03/26 15:48:06;;;;;;;18.52;10.48;;;6.00;99.90;;;;;;6245839;23;20031;-79
2023/03/26 15:51:45;;;;;;;18.85;9.93;;;6.00;79.80;;;;;;6225343;23;20020;-81
2023/03/26 15:54:49;;;;;;;15.65;9.05;;;5.90;99.90;;;;;;6219726;23;20024;-86